sensor_id;sensor_type;location;lat;lon;timestamp;P1;durP1;ratioP1;P2;durP2;ratioP2
7539;SDS011;3811;49.006;12.076;2023-08-31T00:00:42;1.70;;;1.60;;
7539;SDS011;3811;49.006;12.076;2023-08-31T00:03:09;1.60;;;1.50;;
7539;SDS011;3811;49.006;12.076;2023-08-31T00:05:36;1.20;;;1.20;;
7539;SDS011;3811;49.006;12.076;2023-08-31T00:08:06;1.63;;;1.53;;
7539;SDS011;3811;49.006;12.076;2023-08-31T00:10:34;1.10;;;1.10;;
7539;SDS011;3811;49.006;12.076;2023-08-31T00:13:03;2.10;;;1.67;;
7539;SDS011;3811;49.006;12.076;2023-08-31T00:15:31;1.20;;;1.10;;
7539;SDS011;3811;49.006;12.076;2023-08-31T00:18:00;1.00;;;1.00;;
7539;SDS011;3811;49.006;12.076;2023-08-31T00:20:28;0.80;;;0.80;;
7539;SDS011;3811;49.006;12.076;2023-08-31T00:22:55;1.13;;;1.10;;
7539;SDS011;3811;49.006;12.076;2023-08-31T00:25:23;1.50;;;1.10;;
7539;SDS011;3811;49.006;12.076;2023-08-31T00:27:50;1.30;;;1.10;;
7539;SDS011;3811;49.006;12.076;2023-08-31T00:30:20;0.97;;;0.80;;
7539;SDS011;3811;49.006;12.076;2023-08-31T00:32:53;0.50;;;0.50;;
7539;SDS011;3811;49.006;12.076;2023-08-31T00:35:20;1.00;;;1.00;;
7539;SDS011;3811;49.006;12.076;2023-08-31T00:37:49;1.37;;;1.30;;
7539;SDS011;3811;49.006;12.076;2023-08-31T00:40:16;0.80;;;0.80;;
7539;SDS011;3811;49.006;12.076;2023-08-31T00:42:43;0.70;;;0.70;;
7539;SDS011;3811;49.006;12.076;2023-08-31T00:45:11;0.90;;;0.90;;
7539;SDS011;3811;49.006;12.076;2023-08-31T00:47:40;1.47;;;0.97;;
7539;SDS011;3811;49.006;12.076;2023-08-31T00:50:07;1.27;;;1.27;;
7539;SDS011;3811;49.006;12.076;2023-08-31T00:52:36;1.10;;;1.00;;
7539;SDS011;3811;49.006;12.076;2023-08-31T00:55:04;1.13;;;1.13;;
7539;SDS011;3811;49.006;12.076;2023-08-31T00:57:33;0.90;;;0.90;;
7539;SDS011;3811;49.006;12.076;2023-08-31T01:00:00;0.80;;;0.80;;
7539;SDS011;3811;49.006;12.076;2023-08-31T01:02:30;0.90;;;0.90;;
7539;SDS011;3811;49.006;12.076;2023-08-31T01:05:08;0.67;;;0.60;;
7539;SDS011;3811;49.006;12.076;2023-08-31T01:07:48;0.63;;;0.63;;
7539;SDS011;3811;49.006;12.076;2023-08-31T01:10:25;0.83;;;0.83;;
7539;SDS011;3811;49.006;12.076;2023-08-31T01:13:02;1.40;;;1.30;;
7539;SDS011;3811;49.006;12.076;2023-08-31T01:15:36;1.03;;;1.03;;
7539;SDS011;3811;49.006;12.076;2023-08-31T01:18:06;0.87;;;0.77;;
7539;SDS011;3811;49.006;12.076;2023-08-31T01:20:42;1.00;;;1.00;;
7539;SDS011;3811;49.006;12.076;2023-08-31T01:23:13;1.03;;;1.03;;
7539;SDS011;3811;49.006;12.076;2023-08-31T01:25:46;2.70;;;0.73;;
7539;SDS011;3811;49.006;12.076;2023-08-31T01:28:14;0.80;;;0.80;;
7539;SDS011;3811;49.006;12.076;2023-08-31T01:30:41;0.87;;;0.87;;
7539;SDS011;3811;49.006;12.076;2023-08-31T01:33:08;0.50;;;0.50;;
7539;SDS011;3811;49.006;12.076;2023-08-31T01:35:38;0.93;;;0.93;;
7539;SDS011;3811;49.006;12.076;2023-08-31T01:38:09;0.70;;;0.70;;
7539;SDS011;3811;49.006;12.076;2023-08-31T01:40:38;0.73;;;0.73;;
7539;SDS011;3811;49.006;12.076;2023-08-31T01:43:11;0.80;;;0.80;;
7539;SDS011;3811;49.006;12.076;2023-08-31T01:45:39;0.83;;;0.83;;
7539;SDS011;3811;49.006;12.076;2023-08-31T01:48:10;0.53;;;0.53;;
7539;SDS011;3811;49.006;12.076;2023-08-31T01:50:37;1.23;;;1.00;;
7539;SDS011;3811;49.006;12.076;2023-08-31T01:53:05;0.97;;;0.97;;
7539;SDS011;3811;49.006;12.076;2023-08-31T01:55:32;1.10;;;1.10;;
7539;SDS011;3811;49.006;12.076;2023-08-31T01:58:01;0.80;;;0.80;;
7539;SDS011;3811;49.006;12.076;2023-08-31T02:00:30;0.70;;;0.70;;
7539;SDS011;3811;49.006;12.076;2023-08-31T02:03:00;0.90;;;0.90;;
7539;SDS011;3811;49.006;12.076;2023-08-31T02:05:27;1.30;;;1.20;;
7539;SDS011;3811;49.006;12.076;2023-08-31T02:07:54;0.77;;;0.77;;
7539;SDS011;3811;49.006;12.076;2023-08-31T02:10:22;0.67;;;0.67;;
7539;SDS011;3811;49.006;12.076;2023-08-31T02:12:49;0.70;;;0.70;;
7539;SDS011;3811;49.006;12.076;2023-08-31T02:15:16;0.60;;;0.60;;
7539;SDS011;3811;49.006;12.076;2023-08-31T02:17:45;0.87;;;0.87;;
7539;SDS011;3811;49.006;12.076;2023-08-31T02:20:14;0.53;;;0.50;;
7539;SDS011;3811;49.006;12.076;2023-08-31T02:22:41;0.83;;;0.83;;
7539;SDS011;3811;49.006;12.076;2023-08-31T02:25:08;1.10;;;1.10;;
7539;SDS011;3811;49.006;12.076;2023-08-31T02:27:35;0.70;;;0.70;;
7539;SDS011;3811;49.006;12.076;2023-08-31T02:30:02;0.67;;;0.67;;
7539;SDS011;3811;49.006;12.076;2023-08-31T02:32:30;1.10;;;1.00;;
7539;SDS011;3811;49.006;12.076;2023-08-31T02:34:59;1.10;;;1.10;;
7539;SDS011;3811;49.006;12.076;2023-08-31T02:37:26;0.80;;;0.80;;
7539;SDS011;3811;49.006;12.076;2023-08-31T02:39:53;1.30;;;1.20;;
7539;SDS011;3811;49.006;12.076;2023-08-31T02:42:21;0.80;;;0.80;;
7539;SDS011;3811;49.006;12.076;2023-08-31T02:44:51;1.33;;;1.23;;
7539;SDS011;3811;49.006;12.076;2023-08-31T02:47:18;1.30;;;1.20;;
7539;SDS011;3811;49.006;12.076;2023-08-31T02:49:47;1.50;;;1.23;;
7539;SDS011;3811;49.006;12.076;2023-08-31T02:52:15;1.10;;;1.03;;
7539;SDS011;3811;49.006;12.076;2023-08-31T02:54:42;0.97;;;0.97;;
7539;SDS011;3811;49.006;12.076;2023-08-31T02:57:09;1.70;;;1.50;;
7539;SDS011;3811;49.006;12.076;2023-08-31T02:59:36;1.53;;;1.10;;
7539;SDS011;3811;49.006;12.076;2023-08-31T03:02:03;0.93;;;0.93;;
7539;SDS011;3811;49.006;12.076;2023-08-31T03:04:31;0.87;;;0.87;;
7539;SDS011;3811;49.006;12.076;2023-08-31T03:06:58;1.33;;;1.23;;
7539;SDS011;3811;49.006;12.076;2023-08-31T03:09:26;1.37;;;1.27;;
7539;SDS011;3811;49.006;12.076;2023-08-31T03:11:54;1.03;;;1.03;;
7539;SDS011;3811;49.006;12.076;2023-08-31T03:14:21;1.20;;;1.10;;
7539;SDS011;3811;49.006;12.076;2023-08-31T03:16:48;1.10;;;1.10;;
7539;SDS011;3811;49.006;12.076;2023-08-31T03:19:16;1.10;;;1.10;;
7539;SDS011;3811;49.006;12.076;2023-08-31T03:21:43;1.60;;;1.13;;
7539;SDS011;3811;49.006;12.076;2023-08-31T03:24:10;1.03;;;1.03;;
7539;SDS011;3811;49.006;12.076;2023-08-31T03:26:39;1.60;;;1.50;;
7539;SDS011;3811;49.006;12.076;2023-08-31T03:29:06;1.63;;;1.53;;
7539;SDS011;3811;49.006;12.076;2023-08-31T03:31:34;1.03;;;1.03;;
7539;SDS011;3811;49.006;12.076;2023-08-31T03:34:01;1.30;;;1.20;;
7539;SDS011;3811;49.006;12.076;2023-08-31T03:36:28;1.07;;;1.07;;
7539;SDS011;3811;49.006;12.076;2023-08-31T03:38:55;1.20;;;1.17;;
7539;SDS011;3811;49.006;12.076;2023-08-31T03:41:23;1.90;;;1.50;;
7539;SDS011;3811;49.006;12.076;2023-08-31T03:43:51;1.00;;;1.00;;
7539;SDS011;3811;49.006;12.076;2023-08-31T03:46:21;2.00;;;1.80;;
7539;SDS011;3811;49.006;12.076;2023-08-31T03:48:49;2.17;;;2.03;;
7539;SDS011;3811;49.006;12.076;2023-08-31T03:51:16;1.70;;;1.60;;
7539;SDS011;3811;49.006;12.076;2023-08-31T03:53:44;2.67;;;1.57;;
7539;SDS011;3811;49.006;12.076;2023-08-31T03:56:11;1.93;;;1.60;;
7539;SDS011;3811;49.006;12.076;2023-08-31T03:58:39;2.37;;;1.77;;
7539;SDS011;3811;49.006;12.076;2023-08-31T04:01:08;1.63;;;1.50;;
7539;SDS011;3811;49.006;12.076;2023-08-31T04:03:36;1.20;;;1.20;;
7539;SDS011;3811;49.006;12.076;2023-08-31T04:06:04;1.57;;;1.47;;
7539;SDS011;3811;49.006;12.076;2023-08-31T04:08:31;1.00;;;1.00;;
7539;SDS011;3811;49.006;12.076;2023-08-31T04:10:58;2.03;;;1.93;;
7539;SDS011;3811;49.006;12.076;2023-08-31T04:13:25;2.20;;;1.57;;
7539;SDS011;3811;49.006;12.076;2023-08-31T04:15:52;1.80;;;1.70;;
7539;SDS011;3811;49.006;12.076;2023-08-31T04:18:23;1.17;;;1.17;;
7539;SDS011;3811;49.006;12.076;2023-08-31T04:20:50;1.30;;;1.20;;
7539;SDS011;3811;49.006;12.076;2023-08-31T04:23:18;1.77;;;1.67;;
7539;SDS011;3811;49.006;12.076;2023-08-31T04:25:45;1.73;;;1.63;;
7539;SDS011;3811;49.006;12.076;2023-08-31T04:28:12;1.77;;;1.67;;
7539;SDS011;3811;49.006;12.076;2023-08-31T04:30:39;1.50;;;1.40;;
7539;SDS011;3811;49.006;12.076;2023-08-31T04:33:07;1.70;;;1.60;;
7539;SDS011;3811;49.006;12.076;2023-08-31T04:35:35;1.67;;;1.57;;
7539;SDS011;3811;49.006;12.076;2023-08-31T04:38:03;2.03;;;1.93;;
7539;SDS011;3811;49.006;12.076;2023-08-31T04:40:30;2.23;;;1.93;;
7539;SDS011;3811;49.006;12.076;2023-08-31T04:42:57;2.50;;;2.30;;
7539;SDS011;3811;49.006;12.076;2023-08-31T04:45:25;2.00;;;1.90;;
7539;SDS011;3811;49.006;12.076;2023-08-31T04:47:52;1.83;;;1.30;;
7539;SDS011;3811;49.006;12.076;2023-08-31T04:50:19;1.97;;;1.63;;
7539;SDS011;3811;49.006;12.076;2023-08-31T04:52:48;2.30;;;2.10;;
7539;SDS011;3811;49.006;12.076;2023-08-31T04:55:15;1.70;;;1.60;;
7539;SDS011;3811;49.006;12.076;2023-08-31T04:57:42;2.57;;;2.23;;
7539;SDS011;3811;49.006;12.076;2023-08-31T05:00:10;2.03;;;1.83;;
7539;SDS011;3811;49.006;12.076;2023-08-31T05:02:38;2.03;;;1.60;;
7539;SDS011;3811;49.006;12.076;2023-08-31T05:05:05;1.93;;;1.83;;
7539;SDS011;3811;49.006;12.076;2023-08-31T05:07:33;2.13;;;1.80;;
7539;SDS011;3811;49.006;12.076;2023-08-31T05:10:01;1.47;;;1.37;;
7539;SDS011;3811;49.006;12.076;2023-08-31T05:12:29;1.40;;;1.40;;
7539;SDS011;3811;49.006;12.076;2023-08-31T05:14:56;1.80;;;1.70;;
7539;SDS011;3811;49.006;12.076;2023-08-31T05:17:23;2.23;;;1.67;;
7539;SDS011;3811;49.006;12.076;2023-08-31T05:19:50;1.43;;;1.33;;
7539;SDS011;3811;49.006;12.076;2023-08-31T05:22:17;2.27;;;1.60;;
7539;SDS011;3811;49.006;12.076;2023-08-31T05:24:44;2.03;;;1.93;;
7539;SDS011;3811;49.006;12.076;2023-08-31T05:27:13;1.13;;;1.13;;
7539;SDS011;3811;49.006;12.076;2023-08-31T05:29:40;0.70;;;0.70;;
7539;SDS011;3811;49.006;12.076;2023-08-31T05:32:09;1.77;;;1.60;;
7539;SDS011;3811;49.006;12.076;2023-08-31T05:34:36;1.30;;;1.20;;
7539;SDS011;3811;49.006;12.076;2023-08-31T05:37:04;0.90;;;0.90;;
7539;SDS011;3811;49.006;12.076;2023-08-31T05:39:31;0.93;;;0.93;;
7539;SDS011;3811;49.006;12.076;2023-08-31T05:41:59;1.53;;;1.20;;
7539;SDS011;3811;49.006;12.076;2023-08-31T05:44:27;1.10;;;1.10;;
7539;SDS011;3811;49.006;12.076;2023-08-31T05:46:54;1.37;;;1.27;;
7539;SDS011;3811;49.006;12.076;2023-08-31T05:49:21;1.30;;;1.30;;
7539;SDS011;3811;49.006;12.076;2023-08-31T05:51:48;0.90;;;0.90;;
7539;SDS011;3811;49.006;12.076;2023-08-31T05:54:16;1.30;;;1.17;;
7539;SDS011;3811;49.006;12.076;2023-08-31T05:56:43;1.63;;;1.53;;
7539;SDS011;3811;49.006;12.076;2023-08-31T05:59:10;1.13;;;1.10;;
7539;SDS011;3811;49.006;12.076;2023-08-31T06:01:39;1.03;;;0.93;;
7539;SDS011;3811;49.006;12.076;2023-08-31T06:04:07;1.60;;;1.23;;
7539;SDS011;3811;49.006;12.076;2023-08-31T06:06:35;1.30;;;1.20;;
7539;SDS011;3811;49.006;12.076;2023-08-31T06:09:03;1.90;;;1.63;;
7539;SDS011;3811;49.006;12.076;2023-08-31T06:11:31;1.30;;;0.90;;
7539;SDS011;3811;49.006;12.076;2023-08-31T06:14:00;0.87;;;0.87;;
7539;SDS011;3811;49.006;12.076;2023-08-31T06:16:26;1.43;;;1.33;;
7539;SDS011;3811;49.006;12.076;2023-08-31T06:18:55;1.03;;;1.03;;
7539;SDS011;3811;49.006;12.076;2023-08-31T06:21:22;1.53;;;1.47;;
7539;SDS011;3811;49.006;12.076;2023-08-31T06:23:50;1.17;;;1.07;;
7539;SDS011;3811;49.006;12.076;2023-08-31T06:26:17;4.47;;;0.90;;
7539;SDS011;3811;49.006;12.076;2023-08-31T06:28:44;0.87;;;0.87;;
7539;SDS011;3811;49.006;12.076;2023-08-31T06:31:11;0.93;;;0.93;;
7539;SDS011;3811;49.006;12.076;2023-08-31T06:33:38;0.80;;;0.80;;
7539;SDS011;3811;49.006;12.076;2023-08-31T06:36:07;0.93;;;0.93;;
7539;SDS011;3811;49.006;12.076;2023-08-31T06:38:34;0.77;;;0.77;;
7539;SDS011;3811;49.006;12.076;2023-08-31T06:41:01;1.20;;;1.10;;
7539;SDS011;3811;49.006;12.076;2023-08-31T06:43:29;1.00;;;0.90;;
7539;SDS011;3811;49.006;12.076;2023-08-31T06:45:56;0.93;;;0.93;;
7539;SDS011;3811;49.006;12.076;2023-08-31T06:48:24;0.90;;;0.90;;
7539;SDS011;3811;49.006;12.076;2023-08-31T06:50:51;0.97;;;0.97;;
7539;SDS011;3811;49.006;12.076;2023-08-31T06:53:20;1.60;;;1.20;;
7539;SDS011;3811;49.006;12.076;2023-08-31T06:55:46;0.70;;;0.70;;
7539;SDS011;3811;49.006;12.076;2023-08-31T06:58:14;1.00;;;0.97;;
7539;SDS011;3811;49.006;12.076;2023-08-31T07:00:41;1.70;;;1.60;;
7539;SDS011;3811;49.006;12.076;2023-08-31T07:03:08;1.17;;;1.00;;
7539;SDS011;3811;49.006;12.076;2023-08-31T07:05:36;0.80;;;0.80;;
7539;SDS011;3811;49.006;12.076;2023-08-31T07:08:08;1.30;;;1.30;;
7539;SDS011;3811;49.006;12.076;2023-08-31T07:10:37;1.40;;;1.40;;
7539;SDS011;3811;49.006;12.076;2023-08-31T07:13:04;1.00;;;1.00;;
7539;SDS011;3811;49.006;12.076;2023-08-31T07:15:31;0.87;;;0.87;;
7539;SDS011;3811;49.006;12.076;2023-08-31T07:17:58;2.50;;;1.30;;
7539;SDS011;3811;49.006;12.076;2023-08-31T07:20:26;1.10;;;1.10;;
7539;SDS011;3811;49.006;12.076;2023-08-31T07:22:53;1.10;;;1.10;;
7539;SDS011;3811;49.006;12.076;2023-08-31T07:25:20;2.33;;;1.10;;
7539;SDS011;3811;49.006;12.076;2023-08-31T07:27:48;0.90;;;0.90;;
7539;SDS011;3811;49.006;12.076;2023-08-31T07:30:15;1.27;;;1.27;;
7539;SDS011;3811;49.006;12.076;2023-08-31T07:32:42;1.37;;;1.27;;
7539;SDS011;3811;49.006;12.076;2023-08-31T07:35:10;0.90;;;0.90;;
7539;SDS011;3811;49.006;12.076;2023-08-31T07:37:37;0.90;;;0.90;;
7539;SDS011;3811;49.006;12.076;2023-08-31T07:40:05;0.97;;;0.97;;
7539;SDS011;3811;49.006;12.076;2023-08-31T07:42:35;0.80;;;0.80;;
7539;SDS011;3811;49.006;12.076;2023-08-31T07:45:03;0.80;;;0.80;;
7539;SDS011;3811;49.006;12.076;2023-08-31T07:47:33;1.27;;;1.27;;
7539;SDS011;3811;49.006;12.076;2023-08-31T07:50:00;0.73;;;0.73;;
7539;SDS011;3811;49.006;12.076;2023-08-31T07:52:27;1.50;;;1.13;;
7539;SDS011;3811;49.006;12.076;2023-08-31T07:54:54;0.80;;;0.80;;
7539;SDS011;3811;49.006;12.076;2023-08-31T07:57:21;0.70;;;0.70;;
7539;SDS011;3811;49.006;12.076;2023-08-31T07:59:49;0.60;;;0.60;;
7539;SDS011;3811;49.006;12.076;2023-08-31T08:02:18;1.50;;;1.07;;
7539;SDS011;3811;49.006;12.076;2023-08-31T08:04:45;0.63;;;0.60;;
7539;SDS011;3811;49.006;12.076;2023-08-31T08:07:12;0.60;;;0.60;;
7539;SDS011;3811;49.006;12.076;2023-08-31T08:09:39;0.77;;;0.77;;
7539;SDS011;3811;49.006;12.076;2023-08-31T08:12:07;3.50;;;0.70;;
7539;SDS011;3811;49.006;12.076;2023-08-31T08:14:34;0.50;;;0.50;;
7539;SDS011;3811;49.006;12.076;2023-08-31T08:17:01;0.77;;;0.77;;
7539;SDS011;3811;49.006;12.076;2023-08-31T08:19:30;0.90;;;0.90;;
7539;SDS011;3811;49.006;12.076;2023-08-31T08:21:57;0.73;;;0.73;;
7539;SDS011;3811;49.006;12.076;2023-08-31T08:24:24;0.63;;;0.63;;
7539;SDS011;3811;49.006;12.076;2023-08-31T08:26:51;0.50;;;0.50;;
7539;SDS011;3811;49.006;12.076;2023-08-31T08:29:18;0.73;;;0.70;;
7539;SDS011;3811;49.006;12.076;2023-08-31T08:31:45;0.80;;;0.80;;
7539;SDS011;3811;49.006;12.076;2023-08-31T08:34:12;0.50;;;0.50;;
7539;SDS011;3811;49.006;12.076;2023-08-31T08:36:41;0.53;;;0.53;;
7539;SDS011;3811;49.006;12.076;2023-08-31T08:39:08;0.77;;;0.77;;
7539;SDS011;3811;49.006;12.076;2023-08-31T08:41:35;0.70;;;0.70;;
7539;SDS011;3811;49.006;12.076;2023-08-31T08:44:04;1.27;;;0.97;;
7539;SDS011;3811;49.006;12.076;2023-08-31T08:46:33;0.63;;;0.60;;
7539;SDS011;3811;49.006;12.076;2023-08-31T08:49:00;0.33;;;0.33;;
7539;SDS011;3811;49.006;12.076;2023-08-31T08:51:30;1.43;;;0.53;;
7539;SDS011;3811;49.006;12.076;2023-08-31T08:53:59;0.70;;;0.70;;
7539;SDS011;3811;49.006;12.076;2023-08-31T08:56:28;0.50;;;0.50;;
7539;SDS011;3811;49.006;12.076;2023-08-31T08:58:55;0.70;;;0.70;;
7539;SDS011;3811;49.006;12.076;2023-08-31T09:01:23;0.77;;;0.77;;
7539;SDS011;3811;49.006;12.076;2023-08-31T09:06:17;0.60;;;0.60;;
7539;SDS011;3811;49.006;12.076;2023-08-31T09:08:52;0.60;;;0.60;;
7539;SDS011;3811;49.006;12.076;2023-08-31T09:11:21;0.47;;;0.47;;
7539;SDS011;3811;49.006;12.076;2023-08-31T09:13:48;1.23;;;0.80;;
7539;SDS011;3811;49.006;12.076;2023-08-31T09:16:23;0.60;;;0.60;;
7539;SDS011;3811;49.006;12.076;2023-08-31T09:18:51;0.77;;;0.67;;
7539;SDS011;3811;49.006;12.076;2023-08-31T09:21:18;0.63;;;0.43;;
7539;SDS011;3811;49.006;12.076;2023-08-31T09:23:47;0.80;;;0.80;;
7539;SDS011;3811;49.006;12.076;2023-08-31T09:26:15;0.60;;;0.60;;
7539;SDS011;3811;49.006;12.076;2023-08-31T09:28:43;0.60;;;0.60;;
7539;SDS011;3811;49.006;12.076;2023-08-31T09:31:11;0.60;;;0.60;;
7539;SDS011;3811;49.006;12.076;2023-08-31T09:33:38;0.50;;;0.50;;
7539;SDS011;3811;49.006;12.076;2023-08-31T09:36:16;1.47;;;0.80;;
7539;SDS011;3811;49.006;12.076;2023-08-31T09:38:43;0.50;;;0.50;;
7539;SDS011;3811;49.006;12.076;2023-08-31T09:41:14;0.70;;;0.70;;
7539;SDS011;3811;49.006;12.076;2023-08-31T09:43:41;0.43;;;0.43;;
7539;SDS011;3811;49.006;12.076;2023-08-31T09:46:09;0.60;;;0.60;;
7539;SDS011;3811;49.006;12.076;2023-08-31T09:48:38;0.47;;;0.47;;
7539;SDS011;3811;49.006;12.076;2023-08-31T09:51:07;0.60;;;0.50;;
7539;SDS011;3811;49.006;12.076;2023-08-31T09:53:37;0.43;;;0.43;;
7539;SDS011;3811;49.006;12.076;2023-08-31T09:56:04;1.40;;;0.70;;
7539;SDS011;3811;49.006;12.076;2023-08-31T09:58:32;0.47;;;0.47;;
7539;SDS011;3811;49.006;12.076;2023-08-31T10:00:59;0.40;;;0.40;;
7539;SDS011;3811;49.006;12.076;2023-08-31T10:03:28;0.50;;;0.50;;
7539;SDS011;3811;49.006;12.076;2023-08-31T10:05:56;0.33;;;0.33;;
7539;SDS011;3811;49.006;12.076;2023-08-31T10:08:25;0.80;;;0.80;;
7539;SDS011;3811;49.006;12.076;2023-08-31T10:10:56;1.13;;;0.47;;
7539;SDS011;3811;49.006;12.076;2023-08-31T10:13:25;0.50;;;0.50;;
7539;SDS011;3811;49.006;12.076;2023-08-31T10:15:56;0.40;;;0.40;;
7539;SDS011;3811;49.006;12.076;2023-08-31T10:18:23;0.40;;;0.40;;
7539;SDS011;3811;49.006;12.076;2023-08-31T10:20:52;0.50;;;0.50;;
7539;SDS011;3811;49.006;12.076;2023-08-31T10:23:19;0.70;;;0.53;;
7539;SDS011;3811;49.006;12.076;2023-08-31T10:26:00;0.63;;;0.63;;
7539;SDS011;3811;49.006;12.076;2023-08-31T10:28:29;0.40;;;0.40;;
7539;SDS011;3811;49.006;12.076;2023-08-31T10:31:02;0.77;;;0.77;;
7539;SDS011;3811;49.006;12.076;2023-08-31T10:33:33;0.63;;;0.53;;
7539;SDS011;3811;49.006;12.076;2023-08-31T10:36:03;0.80;;;0.80;;
7539;SDS011;3811;49.006;12.076;2023-08-31T10:38:30;0.50;;;0.50;;
7539;SDS011;3811;49.006;12.076;2023-08-31T10:41:03;0.43;;;0.43;;
7539;SDS011;3811;49.006;12.076;2023-08-31T10:43:49;0.60;;;0.60;;
7539;SDS011;3811;49.006;12.076;2023-08-31T10:46:17;2.30;;;0.90;;
7539;SDS011;3811;49.006;12.076;2023-08-31T10:48:52;0.50;;;0.50;;
7539;SDS011;3811;49.006;12.076;2023-08-31T10:51:25;0.67;;;0.67;;
7539;SDS011;3811;49.006;12.076;2023-08-31T10:54:03;0.33;;;0.33;;
7539;SDS011;3811;49.006;12.076;2023-08-31T10:56:31;0.60;;;0.60;;
7539;SDS011;3811;49.006;12.076;2023-08-31T10:58:59;0.50;;;0.50;;
7539;SDS011;3811;49.006;12.076;2023-08-31T11:04:21;0.63;;;0.60;;
7539;SDS011;3811;49.006;12.076;2023-08-31T11:06:51;0.70;;;0.70;;
7539;SDS011;3811;49.006;12.076;2023-08-31T11:09:42;0.30;;;0.30;;
7539;SDS011;3811;49.006;12.076;2023-08-31T11:12:10;0.57;;;0.57;;
7539;SDS011;3811;49.006;12.076;2023-08-31T11:14:38;1.07;;;0.67;;
7539;SDS011;3811;49.006;12.076;2023-08-31T11:17:05;0.87;;;0.87;;
7539;SDS011;3811;49.006;12.076;2023-08-31T11:19:32;0.73;;;0.73;;
7539;SDS011;3811;49.006;12.076;2023-08-31T11:22:02;0.93;;;0.70;;
7539;SDS011;3811;49.006;12.076;2023-08-31T11:24:29;0.40;;;0.40;;
7539;SDS011;3811;49.006;12.076;2023-08-31T11:26:57;0.50;;;0.50;;
7539;SDS011;3811;49.006;12.076;2023-08-31T11:29:24;0.33;;;0.33;;
7539;SDS011;3811;49.006;12.076;2023-08-31T11:31:53;0.83;;;0.60;;
7539;SDS011;3811;49.006;12.076;2023-08-31T11:34:22;0.40;;;0.40;;
7539;SDS011;3811;49.006;12.076;2023-08-31T11:36:49;0.40;;;0.40;;
7539;SDS011;3811;49.006;12.076;2023-08-31T11:39:18;0.40;;;0.40;;
7539;SDS011;3811;49.006;12.076;2023-08-31T11:41:45;0.77;;;0.77;;
7539;SDS011;3811;49.006;12.076;2023-08-31T11:44:14;0.67;;;0.60;;
7539;SDS011;3811;49.006;12.076;2023-08-31T11:46:43;0.70;;;0.70;;
7539;SDS011;3811;49.006;12.076;2023-08-31T11:49:13;0.60;;;0.60;;
7539;SDS011;3811;49.006;12.076;2023-08-31T11:51:40;0.60;;;0.60;;
7539;SDS011;3811;49.006;12.076;2023-08-31T11:54:09;0.70;;;0.70;;
7539;SDS011;3811;49.006;12.076;2023-08-31T11:56:41;0.80;;;0.77;;
7539;SDS011;3811;49.006;12.076;2023-08-31T11:59:09;1.43;;;0.63;;
7539;SDS011;3811;49.006;12.076;2023-08-31T12:01:40;0.70;;;0.70;;
7539;SDS011;3811;49.006;12.076;2023-08-31T12:04:11;0.77;;;0.77;;
7539;SDS011;3811;49.006;12.076;2023-08-31T12:06:39;0.70;;;0.70;;
7539;SDS011;3811;49.006;12.076;2023-08-31T12:09:07;0.93;;;0.93;;
7539;SDS011;3811;49.006;12.076;2023-08-31T12:11:34;0.80;;;0.80;;
7539;SDS011;3811;49.006;12.076;2023-08-31T12:14:03;0.73;;;0.50;;
7539;SDS011;3811;49.006;12.076;2023-08-31T12:16:43;0.60;;;0.60;;
7539;SDS011;3811;49.006;12.076;2023-08-31T12:19:11;0.70;;;0.70;;
7539;SDS011;3811;49.006;12.076;2023-08-31T12:21:38;1.50;;;0.67;;
7539;SDS011;3811;49.006;12.076;2023-08-31T12:24:06;0.57;;;0.57;;
7539;SDS011;3811;49.006;12.076;2023-08-31T12:26:33;0.77;;;0.77;;
7539;SDS011;3811;49.006;12.076;2023-08-31T12:29:02;0.37;;;0.37;;
7539;SDS011;3811;49.006;12.076;2023-08-31T12:31:29;0.90;;;0.60;;
7539;SDS011;3811;49.006;12.076;2023-08-31T12:33:57;0.87;;;0.83;;
7539;SDS011;3811;49.006;12.076;2023-08-31T12:36:24;0.43;;;0.43;;
7539;SDS011;3811;49.006;12.076;2023-08-31T12:38:52;0.50;;;0.50;;
7539;SDS011;3811;49.006;12.076;2023-08-31T12:41:19;0.57;;;0.57;;
7539;SDS011;3811;49.006;12.076;2023-08-31T12:43:46;0.80;;;0.80;;
7539;SDS011;3811;49.006;12.076;2023-08-31T12:46:15;0.50;;;0.50;;
7539;SDS011;3811;49.006;12.076;2023-08-31T12:48:42;0.60;;;0.60;;
7539;SDS011;3811;49.006;12.076;2023-08-31T12:51:09;0.50;;;0.50;;
7539;SDS011;3811;49.006;12.076;2023-08-31T12:53:39;0.77;;;0.77;;
7539;SDS011;3811;49.006;12.076;2023-08-31T12:56:06;3.40;;;0.83;;
7539;SDS011;3811;49.006;12.076;2023-08-31T12:58:33;0.50;;;0.50;;
7539;SDS011;3811;49.006;12.076;2023-08-31T13:01:00;0.70;;;0.70;;
7539;SDS011;3811;49.006;12.076;2023-08-31T13:03:28;0.47;;;0.47;;
7539;SDS011;3811;49.006;12.076;2023-08-31T13:05:55;0.40;;;0.40;;
7539;SDS011;3811;49.006;12.076;2023-08-31T13:08:22;0.60;;;0.60;;
7539;SDS011;3811;49.006;12.076;2023-08-31T13:10:53;0.63;;;0.63;;
7539;SDS011;3811;49.006;12.076;2023-08-31T13:13:20;1.27;;;0.90;;
7539;SDS011;3811;49.006;12.076;2023-08-31T13:15:48;1.83;;;0.90;;
7539;SDS011;3811;49.006;12.076;2023-08-31T13:18:15;0.70;;;0.70;;
7539;SDS011;3811;49.006;12.076;2023-08-31T13:20:49;0.70;;;0.50;;
7539;SDS011;3811;49.006;12.076;2023-08-31T13:23:16;0.57;;;0.57;;
7539;SDS011;3811;49.006;12.076;2023-08-31T13:25:44;0.77;;;0.77;;
7539;SDS011;3811;49.006;12.076;2023-08-31T13:28:12;0.73;;;0.73;;
7539;SDS011;3811;49.006;12.076;2023-08-31T13:30:39;1.17;;;1.07;;
7539;SDS011;3811;49.006;12.076;2023-08-31T13:33:07;0.90;;;0.90;;
7539;SDS011;3811;49.006;12.076;2023-08-31T13:35:35;0.70;;;0.70;;
7539;SDS011;3811;49.006;12.076;2023-08-31T13:38:03;2.03;;;1.10;;
7539;SDS011;3811;49.006;12.076;2023-08-31T13:40:33;0.60;;;0.60;;
7539;SDS011;3811;49.006;12.076;2023-08-31T13:43:01;0.70;;;0.70;;
7539;SDS011;3811;49.006;12.076;2023-08-31T13:45:29;0.90;;;0.90;;
7539;SDS011;3811;49.006;12.076;2023-08-31T13:47:56;1.67;;;1.10;;
7539;SDS011;3811;49.006;12.076;2023-08-31T13:50:25;1.10;;;0.80;;
7539;SDS011;3811;49.006;12.076;2023-08-31T13:52:52;0.90;;;0.90;;
7539;SDS011;3811;49.006;12.076;2023-08-31T13:55:21;0.67;;;0.67;;
7539;SDS011;3811;49.006;12.076;2023-08-31T13:57:48;1.07;;;0.93;;
7539;SDS011;3811;49.006;12.076;2023-08-31T14:00:16;1.23;;;0.97;;
7539;SDS011;3811;49.006;12.076;2023-08-31T14:02:43;0.70;;;0.70;;
7539;SDS011;3811;49.006;12.076;2023-08-31T14:05:10;0.87;;;0.87;;
7539;SDS011;3811;49.006;12.076;2023-08-31T14:07:39;0.87;;;0.87;;
7539;SDS011;3811;49.006;12.076;2023-08-31T14:10:07;0.90;;;0.90;;
7539;SDS011;3811;49.006;12.076;2023-08-31T14:12:36;0.63;;;0.60;;
7539;SDS011;3811;49.006;12.076;2023-08-31T14:15:04;0.60;;;0.60;;
7539;SDS011;3811;49.006;12.076;2023-08-31T14:17:32;0.83;;;0.83;;
7539;SDS011;3811;49.006;12.076;2023-08-31T14:19:59;0.77;;;0.77;;
7539;SDS011;3811;49.006;12.076;2023-08-31T14:22:31;1.03;;;1.03;;
7539;SDS011;3811;49.006;12.076;2023-08-31T14:24:58;0.97;;;0.97;;
7539;SDS011;3811;49.006;12.076;2023-08-31T14:27:26;1.37;;;0.77;;
7539;SDS011;3811;49.006;12.076;2023-08-31T14:29:56;1.00;;;0.90;;
7539;SDS011;3811;49.006;12.076;2023-08-31T14:32:24;0.87;;;0.73;;
7539;SDS011;3811;49.006;12.076;2023-08-31T14:34:53;0.37;;;0.37;;
7539;SDS011;3811;49.006;12.076;2023-08-31T14:37:20;0.67;;;0.67;;
7539;SDS011;3811;49.006;12.076;2023-08-31T14:39:48;1.07;;;0.93;;
7539;SDS011;3811;49.006;12.076;2023-08-31T14:42:15;0.80;;;0.80;;
7539;SDS011;3811;49.006;12.076;2023-08-31T14:44:44;2.00;;;0.70;;
7539;SDS011;3811;49.006;12.076;2023-08-31T14:47:13;0.70;;;0.70;;
7539;SDS011;3811;49.006;12.076;2023-08-31T14:49:40;0.90;;;0.90;;
7539;SDS011;3811;49.006;12.076;2023-08-31T14:52:08;1.80;;;1.17;;
7539;SDS011;3811;49.006;12.076;2023-08-31T14:54:35;0.80;;;0.80;;
7539;SDS011;3811;49.006;12.076;2023-08-31T14:57:02;1.27;;;0.80;;
7539;SDS011;3811;49.006;12.076;2023-08-31T14:59:29;2.57;;;1.33;;
7539;SDS011;3811;49.006;12.076;2023-08-31T15:01:57;1.10;;;1.00;;
7539;SDS011;3811;49.006;12.076;2023-08-31T15:04:28;1.10;;;1.03;;
7539;SDS011;3811;49.006;12.076;2023-08-31T15:06:55;0.67;;;0.60;;
7539;SDS011;3811;49.006;12.076;2023-08-31T15:09:22;0.83;;;0.80;;
7539;SDS011;3811;49.006;12.076;2023-08-31T15:11:50;0.90;;;0.90;;